Latest Weather Observations for Cape Jaffa

IDS60801

Issued at 10:35 pm CDT Saturday 1 November 2014 (issued every 30 minutes, with the page automatically refreshed every 10 minutes)

About weather observations | Map of weather stations | Latest weather observations for SA | Other Formats
Station Details ID: 026095 Name: THE LIMESTONE Lat: -36.97 Lon: 139.72 Height: 17.0 m
Data from the previous 72 hours. | See also: Recent months at Cape Jaffa
Date/Time
CDT
Temp
°C
App
Temp
°C
Dew
Point
Rel
Hum
%
Delta-T
°C
Wind Press
QNH
hPa
Press
MSL
hPa
Rain
since 9 am
mm
Dir
 
Spd
km/h
Gust
km/h
Spd
kts
Gust
kts
01/10:30pm 12.1 4.9 5.9 66 2.9 SW 33 46 18 25 1020.7 1020.7 0.0
01/10:00pm 11.9 3.9 3.9 58 3.6 WSW 35 46 19 25 1020.6 1020.6 0.0
01/09:36pm 11.8 3.9 4.5 61 3.3 WSW 35 54 19 29 1020.6 1020.6 0.0
01/09:30pm 11.8 2.7 3.8 58 3.6 SW 41 54 22 29 1020.5 1020.5 0.0
01/09:18pm 12.2 4.6 5.6 64 3.1 WSW 35 54 19 29 1020.2 1020.2 0.0
01/09:00pm 12.4 5.3 5.3 62 3.3 WSW 32 41 17 22 1020.1 1020.1 0.0
01/08:30pm 12.3 5.0 4.5 59 3.5 WSW 32 46 17 25 1019.6 1019.6 0.0
01/08:00pm 11.9 4.7 4.9 62 3.2 SW 32 43 17 23 1019.2 1019.2 0.0
01/07:30pm 12.0 4.7 5.4 64 3.0 SW 33 43 18 23 1018.9 1018.9 0.0
01/07:00pm 11.8 3.7 5.2 64 3.0 SW 37 52 20 28 1018.5 1018.5 0.0
01/06:44pm 12.8 5.0 6.6 66 3.0 SW 37 59 20 32 1018.1 1018.1 0.0
01/06:30pm 12.9 5.1 4.8 58 3.7 WSW 35 44 19 24 1018.0 1018.0 0.0
01/06:00pm 12.6 5.8 6.9 68 2.7 WSW 32 43 17 23 1017.9 1017.9 0.0
01/05:30pm 12.9 4.6 6.3 64 3.1 WSW 39 50 21 27 1017.4 1017.3 0.0
01/05:00pm 13.0 5.5 6.1 63 3.3 WSW 35 50 19 27 1016.9 1016.8 0.0
01/04:32pm 12.8 4.3 6.8 67 2.9 WSW 41 61 22 33 1016.6 1016.5 0.0
01/04:30pm 13.7 5.2 5.1 56 4.0 WSW 39 57 21 31 1016.6 1016.5 0.0
01/04:02pm 12.5 5.6 8.8 78 1.9 WSW 35 56 19 30 1016.5 1016.4 0.0
01/04:00pm 12.0 4.1 7.9 76 2.0 WSW 39 56 21 30 1016.4 1016.3 0.0
01/03:30pm 15.1 6.0 4.2 48 5.0 WSW 41 52 22 28 1015.9 1015.8 0.0
01/03:00pm 14.6 5.4 3.4 47 5.1 WSW 41 56 22 30 1015.8 1015.7 0.0
01/02:30pm 14.8 5.8 4.8 51 4.7 WSW 41 50 22 27 1015.6 1015.5 0.0
01/02:00pm 15.1 5.4 3.0 44 5.5 WSW 43 56 23 30 1015.3 1015.2 0.0
01/01:30pm 15.0 6.2 5.5 53 4.5 WSW 41 52 22 28 1015.1 1015.0 0.0
01/01:03pm 12.1 2.6 6.8 70 2.5 WSW 46 65 25 35 1014.8 1014.7 0.0
01/01:00pm 12.1 1.4 6.6 69 2.6 WSW 52 70 28 38 1014.7 1014.6 0.0
01/12:49pm 14.8 5.2 4.5 50 4.8 WSW 44 65 24 35 1014.4 1014.3 0.0
01/12:30pm 14.5 4.4 3.9 49 4.8 WSW 46 57 25 31 1014.2 1014.1 0.0
01/12:00pm 14.0 5.1 4.9 54 4.2 WSW 41 54 22 29 1014.1 1014.0 0.0
01/11:30am 14.5 4.9 4.5 51 4.6 WSW 44 63 24 34 1013.7 1013.6 0.0
01/11:26am 14.6 5.2 4.6 51 4.6 SW 43 63 23 34 1013.6 1013.5 0.0
01/11:00am 13.5 3.5 4.4 54 4.2 WSW 46 61 25 33 1013.3 1013.2 0.0
01/10:30am 10.6 -0.5 4.5 66 2.7 WSW 52 72 28 39 1013.2 1013.1 0.0
01/10:21am 13.7 4.0 5.6 58 3.8 WSW 46 67 25 36 1012.6 1012.6 0.0
01/10:00am 13.0 3.6 4.2 55 4.0 WSW 43 59 23 32 1012.4 1012.4 0.0
01/09:50am 11.8 0.6 3.8 58 3.6 WSW 52 70 28 38 1012.3 1012.3 0.0
01/09:30am 12.7 2.3 4.2 56 3.9 WSW 48 63 26 34 1011.7 1011.7 0.0
01/09:00am 12.9 2.5 4.3 56 3.9 WSW 48 59 26 32 1011.1 1011.1 3.4
01/08:35am 11.1 1.8 5.2 67 2.7 WSW 43 63 23 34 1010.7 1010.7 3.4
01/08:30am 11.1 1.8 5.8 70 2.5 WSW 44 63 24 34 1010.8 1010.8 3.4
01/08:28am 11.9 2.8 5.8 66 2.8 WSW 43 63 23 34 1010.3 1010.3 3.4
01/08:00am 12.5 3.1 5.4 62 3.3 WSW 44 57 24 31 1009.6 1009.5 3.4
01/07:37am 12.4 3.2 5.3 62 3.3 SW 43 63 23 34 1009.0 1008.9 3.4
01/07:30am 12.3 3.7 6.6 68 2.7 WSW 41 54 22 29 1009.1 1009.0 3.4
01/07:14am 12.7 3.1 6.1 64 3.1 WSW 46 65 25 35 1008.6 1008.5 3.4
01/07:00am 11.9 1.9 4.4 60 3.4 WSW 46 61 25 33 1008.2 1008.1 3.4
01/06:40am 11.7 3.3 7.2 74 2.2 WSW 41 63 22 34 1007.8 1007.7 3.4
01/06:30am 10.9 2.1 7.4 79 1.7 WSW 43 59 23 32 1007.7 1007.6 3.4
01/06:07am 11.4 4.2 7.7 78 1.8 WSW 35 59 19 32 1007.2 1007.1 3.2
01/06:00am 11.2 2.6 8.2 82 1.5 WSW 43 59 23 32 1007.1 1007.0 3.2
01/05:48am 12.6 5.0 7.7 72 2.4 WSW 37 63 20 34 1006.6 1006.5 3.2
01/05:30am 12.4 4.0 7.5 72 2.4 WSW 41 56 22 30 1006.4 1006.3 3.2
01/05:00am 12.7 4.3 5.8 63 3.2 WSW 39 52 21 28 1005.8 1005.7 3.2
01/04:30am 12.7 3.0 5.6 62 3.3 WSW 46 57 25 31 1005.3 1005.2 3.2
01/04:00am 12.4 3.7 6.0 65 3.0 WSW 41 57 22 31 1005.1 1005.0 3.2
01/03:30am 12.8 4.9 9.3 79 1.8 WSW 41 54 22 29 1004.5 1004.4 3.2
01/03:00am 12.9 5.6 10.3 84 1.4 WSW 39 50 21 27 1004.0 1004.0 3.2
01/02:30am 12.9 4.4 10.6 86 1.2 WSW 46 63 25 34 1003.7 1003.7 3.2
01/02:20am 12.9 4.9 10.4 85 1.3 WSW 43 63 23 34 1003.6 1003.6 3.2
01/02:00am 12.9 5.9 11.3 90 0.8 WSW 39 52 21 28 1003.5 1003.5 3.2
01/01:48am 13.6 8.8 11.7 88 1.0 W 28 56 15 30 1003.5 1003.5 3.2
01/01:30am 12.9 7.9 11.0 88 1.0 W 28 37 15 20 1003.4 1003.4 3.2
01/01:17am 13.0 8.0 11.1 88 1.0 W 28 46 15 25 1003.6 1003.6 3.0
01/01:00am 13.7 10.2 12.1 90 0.9 WNW 22 35 12 19 1003.7 1003.7 3.0
01/12:30am 13.4 10.1 11.6 89 1.0 WNW 20 28 11 15 1004.2 1004.2 2.6
01/12:00am 13.4 10.1 10.9 85 1.3 W 19 28 10 15 1003.9 1003.9 2.6
 
Date/Time
CDT
Temp
°C
App
Temp
°C
Dew
Point
Rel
Hum
%
Delta-T
°C
Wind Press
QNH
hPa
Press
MSL
hPa
Rain
since 9 am
mm
Dir
 
Spd
km/h
Gust
km/h
Spd
kts
Gust
kts
31/11:30pm 13.0 10.8 10.9 87 1.1 W 13 20 7 11 1003.7 1003.7 2.6
31/11:00pm 12.8 10.2 10.7 87 1.1 W 15 20 8 11 1003.6 1003.6 2.6
31/10:30pm 13.0 11.4 10.2 83 1.5 WSW 9 13 5 7 1003.0 1003.0 1.4
31/10:00pm 14.0 11.2 11.3 84 1.4 WSW 17 22 9 12 1003.5 1003.5 0.2
31/09:30pm 14.4 10.2 11.0 80 1.8 WSW 24 35 13 19 1003.8 1003.8 0.0
31/09:00pm 15.1 9.4 11.7 80 1.8 WSW 33 41 18 22 1003.7 1003.7 0.0
31/08:30pm 15.1 10.4 11.9 81 1.7 SW 28 35 15 19 1002.0 1002.0 0.0
31/08:00pm 15.1 9.5 11.5 79 1.9 SW 32 41 17 22 1001.4 1001.4 0.0
31/07:30pm 15.6 9.3 12.4 81 1.8 SW 37 50 20 27 1001.3 1001.3 0.0
31/07:00pm 16.1 10.5 13.2 83 1.6 WSW 35 44 19 24 1001.0 1001.0 0.0
31/06:30pm 16.3 11.0 13.2 82 1.7 WSW 33 48 18 26 1000.2 1000.2 0.0
31/06:00pm 16.9 10.6 13.6 81 1.9 WSW 39 48 21 26 999.4 999.4 0.0
31/05:30pm 19.4 13.4 13.3 68 3.5 WSW 37 48 20 26 999.0 999.0 0.0
31/05:00pm 19.3 13.7 12.1 63 4.0 W 33 43 18 23 998.8 998.8 0.0
31/04:30pm 20.6 14.7 11.0 54 5.3 W 33 44 18 24 998.9 998.9 0.0
31/04:00pm 22.6 16.8 10.7 47 6.6 W 32 44 17 24 999.0 999.0 0.0
31/03:30pm 25.0 19.8 10.1 39 8.3 WNW 28 33 15 18 999.3 999.3 0.0
31/03:00pm 27.7 21.6 8.1 29 10.7 NNW 30 37 16 20 999.4 999.4 0.0
31/02:30pm 27.3 21.4 7.7 29 10.6 NNW 28 37 15 20 1000.1 1000.1 0.0
31/02:00pm 29.0 23.2 8.1 27 11.4 NNW 28 37 15 20 1000.4 1000.4 0.0
31/01:30pm 26.7 20.8 7.7 30 10.2 N 28 41 15 22 1000.7 1000.7 0.0
31/01:00pm 25.9 21.1 8.8 34 9.3 N 24 37 13 20 1001.2 1001.2 0.0
31/12:30pm 25.0 20.3 10.8 41 8.0 N 26 33 14 18 1001.8 1001.8 0.0
31/12:00pm 25.4 19.4 8.8 35 9.0 N 30 37 16 20 1002.1 1002.1 0.0
31/11:30am 25.3 18.7 7.9 33 9.3 N 32 41 17 22 1002.5 1002.5 0.0
31/11:00am 24.1 17.8 8.9 38 8.2 N 32 41 17 22 1003.0 1003.0 0.0
31/10:30am 23.1 17.3 10.9 46 6.8 N 32 37 17 20 1003.5 1003.5 0.0
31/10:00am 22.5 15.6 9.0 42 7.2 N 35 46 19 25 1003.9 1003.9 0.0
31/09:30am 21.6 15.6 10.1 48 6.3 NNE 32 43 17 23 1004.2 1004.2 0.0
31/09:00am 18.9 12.8 9.7 55 4.9 NNE 32 43 17 23 1004.9 1004.8 0.0
31/08:30am 19.3 12.9 9.5 53 5.2 NNE 33 44 18 24 1005.1 1005.0 0.0
31/08:00am 17.3 12.3 9.7 61 4.0 NNE 26 39 14 21 1005.7 1005.6 0.0
31/07:30am 15.5 11.3 9.8 69 3.0 NNE 22 32 12 17 1005.9 1005.8 0.0
31/07:00am 14.9 11.5 10.5 75 2.3 NNE 19 24 10 13 1006.1 1006.0 0.0
31/06:30am 11.1 8.0 8.8 86 1.1 NNE 15 17 8 9 1006.4 1006.3 0.0
31/06:00am 10.8 7.3 8.6 86 1.1 NE 17 19 9 10 1006.4 1006.3 0.0
31/05:30am 10.5 7.6 8.1 85 1.2 ENE 13 15 7 8 1006.6 1006.5 0.0
31/05:00am 10.9 8.0 8.3 84 1.3 ENE 13 15 7 8 1006.9 1006.8 0.0
31/04:30am 11.0 8.2 8.4 84 1.3 E 13 20 7 11 1007.3 1007.2 0.0
31/04:00am 11.4 8.6 8.4 82 1.5 E 13 17 7 9 1007.6 1007.5 0.0
31/03:30am 11.1 7.5 8.3 83 1.4 E 17 20 9 11 1008.0 1007.9 0.0
31/03:00am 11.1 7.9 8.3 83 1.4 E 15 20 8 11 1008.4 1008.3 0.0
31/02:30am 10.7 7.4 8.1 84 1.3 ENE 15 19 8 10 1009.2 1009.1 0.0
31/02:00am 10.4 7.1 8.0 85 1.2 ENE 15 17 8 9 1010.0 1010.0 0.0
31/01:30am 9.9 6.1 7.7 86 1.1 ENE 17 20 9 11 1010.3 1010.3 0.0
31/01:00am 9.9 6.9 7.8 87 1.0 ENE 13 15 7 8 1011.1 1011.1 0.0
31/12:30am 9.6 7.2 7.2 85 1.1 ESE 9 11 5 6 1011.9 1011.9 0.0
31/12:00am 9.9 7.6 7.3 84 1.2 E 9 9 5 5 1012.3 1012.3 0.0
 
Date/Time
CDT
Temp
°C
App
Temp
°C
Dew
Point
Rel
Hum
%
Delta-T
°C
Wind Press
QNH
hPa
Press
MSL
hPa
Rain
since 9 am
mm
Dir
 
Spd
km/h
Gust
km/h
Spd
kts
Gust
kts
30/11:30pm 9.6 7.1 6.5 81 1.4 E 9 9 5 5 1012.3 1012.3 0.0
30/11:00pm 10.9 8.6 7.4 79 1.7 SSE 9 13 5 7 1012.7 1012.7 0.0
30/10:30pm 11.0 8.8 7.7 80 1.6 SSE 9 11 5 6 1013.1 1013.1 0.0
30/10:00pm 11.5 8.9 7.8 78 1.8 SSE 11 11 6 6 1013.4 1013.4 0.0
30/09:30pm 10.8 8.5 7.3 79 1.7 SE 9 11 5 6 1013.4 1013.4 0.0
30/09:00pm 11.5 9.9 7.8 78 1.8 SE 6 7 3 4 1013.4 1013.4 0.0
30/08:30pm 11.8 9.2 7.9 77 1.9 SSW 11 13 6 7 1013.4 1013.4 0.0
30/08:00pm 12.5 10.7 7.8 73 2.3 S 7 9 4 5 1013.4 1013.4 0.0
30/07:30pm 14.0 11.9 8.4 69 2.8 SSW 9 11 5 6 1013.4 1013.4 0.0
30/07:00pm 15.2 13.6 8.7 65 3.3 SW 7 13 4 7 1013.2 1013.2 0.0
30/06:30pm 16.2 14.6 8.7 61 3.8 SW 7 15 4 8 1013.2 1013.2 0.0
30/06:00pm 16.0 14.3 8.2 60 3.9 WSW 7 13 4 7 1013.1 1013.1 0.0
30/05:30pm 17.3 15.0 9.0 58 4.3 W 11 19 6 10 1013.4 1013.4 0.0
30/05:00pm 16.9 14.4 8.3 57 4.4 W 11 15 6 8 1013.6 1013.6 0.0
30/04:30pm 17.6 14.8 8.7 56 4.6 WSW 13 20 7 11 1013.9 1013.9 0.0
30/04:00pm 17.8 15.0 8.4 54 4.8 W 13 24 7 13 1014.1 1014.1 0.0
30/03:30pm 17.1 14.2 8.3 56 4.5 W 13 22 7 12 1014.3 1014.3 0.0
30/03:00pm 17.7 14.6 8.8 56 4.6 W 15 30 8 16 1014.6 1014.6 0.0
30/02:30pm 17.5 14.3 8.4 55 4.7 W 15 22 8 12 1015.2 1015.2 0.0
30/02:00pm 18.1 14.6 8.7 54 4.9 N 17 24 9 13 1015.4 1015.4 0.0
30/01:30pm 17.0 14.0 7.9 55 4.6 WNW 13 20 7 11 1015.3 1015.3 0.0
30/01:00pm 18.3 15.1 8.6 53 5.0 W 15 22 8 12 1015.5 1015.5 0.0
30/12:30pm 17.0 13.7 8.2 56 4.5 W 15 24 8 13 1015.8 1015.8 0.0
30/12:00pm 16.8 13.9 8.0 56 4.5 W 13 19 7 10 1016.1 1016.1 0.0
30/11:30am 16.6 12.9 7.8 56 4.4 WSW 17 28 9 15 1016.3 1016.3 0.0
30/11:00am 16.4 13.1 7.9 57 4.3 WSW 15 22 8 12 1016.5 1016.5 0.0
30/10:30am 16.4 12.3 7.9 57 4.3 WSW 19 22 10 12 1016.6 1016.6 0.0
30/10:00am 16.4 12.4 8.4 59 4.1 WSW 19 24 10 13 1016.6 1016.6 0.0
30/09:30am 16.0 11.7 8.0 59 4.0 WSW 20 26 11 14 1016.5 1016.5 0.0
30/09:00am 15.5 11.9 8.3 62 3.6 WSW 17 24 9 13 1016.5 1016.5 0.0
30/08:30am 15.3 12.2 8.8 65 3.3 WSW 15 19 8 10 1016.4 1016.4 0.0
30/08:00am 14.8 12.2 9.2 69 2.9 WSW 13 19 7 10 1016.3 1016.3 0.0
30/07:30am 14.4 11.6 10.0 75 2.3 WSW 15 19 8 10 1016.0 1016.0 0.0
30/07:00am 14.1 12.9 9.5 74 2.4 WNW 6 9 3 5 1015.8 1015.8 0.0
30/06:30am 13.7 12.3 9.0 73 2.4 WNW 6 7 3 4 1015.6 1015.6 0.0
30/06:00am 13.6 11.8 9.5 76 2.1 WSW 9 11 5 6 1015.5 1015.5 0.0
30/05:30am 13.5 11.8 9.7 78 1.9 SW 9 13 5 7 1015.2 1015.2 0.0
30/05:00am 13.1 11.1 8.8 75 2.2 SW 9 11 5 6 1015.2 1015.2 0.0
30/04:30am 12.7 11.6 8.6 76 2.0 SW 4 6 2 3 1014.9 1014.9 0.0
30/04:00am 13.2 11.6 8.1 71 2.5 W 6 7 3 4 1014.7 1014.7 0.0
30/03:30am 14.0 11.2 8.6 70 2.7 WSW 13 17 7 9 1015.5 1015.5 0.0
30/03:00am 14.0 10.9 8.8 71 2.6 W 15 17 8 9 1015.6 1015.6 0.0
30/02:30am 13.4 11.0 8.5 72 2.4 W 11 15 6 8 1015.7 1015.7 0.0
30/02:00am 13.4 12.5 9.1 75 2.2 W 4 6 2 3 1015.7 1015.7 0.0
30/01:30am 13.6 12.3 9.1 74 2.3 W 6 7 3 4 1015.9 1015.9 0.0
30/01:00am 13.6 12.2 8.7 72 2.5 WSW 6 9 3 5 1016.3 1016.3 0.0
30/12:30am 13.3 11.7 8.6 73 2.3 SW 7 11 4 6 1016.5 1016.5 0.0
30/12:00am 12.4 10.3 8.1 75 2.1 WSW 9 11 5 6 1016.8 1016.8 0.0
 
Date/Time
CDT
Temp
°C
App
Temp
°C
Dew
Point
Rel
Hum
%
Delta-T
°C
Wind Press
QNH
hPa
Press
MSL
hPa
Rain
since 9 am
mm
Dir
 
Spd
km/h
Gust
km/h
Spd
kts
Gust
kts
29/11:30pm 12.2 10.2 8.5 78 1.8 SW 9 11 5 6 1017.0 1017.0 0.0
29/11:00pm 12.6 10.6 8.5 76 2.0 SW 9 13 5 7 1017.0 1017.0 0.0

Other Formats:

Comma delimited format used in spreadsheet applications
http://www.bom.gov.au/fwo/IDS60801/IDS60801.94813.axf

JavaScript Object Notation format (JSON) in row-major order
http://www.bom.gov.au/fwo/IDS60801/IDS60801.94813.json